createdAt,value
2022-11-29T00:00:30.615Z,2.93
2022-11-29T00:03:32.845Z,2.95
2022-11-29T00:06:35.274Z,2.96
2022-11-29T00:09:36.635Z,2.94
2022-11-29T00:12:38.121Z,2.97
2022-11-29T00:15:39.846Z,2.97
2022-11-29T00:18:41.183Z,2.97
2022-11-29T00:21:42.537Z,2.96
2022-11-29T00:24:44.276Z,2.94
2022-11-29T00:27:46.327Z,2.95
2022-11-29T00:30:47.738Z,2.94
2022-11-29T00:33:50.172Z,2.96
2022-11-29T00:36:51.673Z,2.94
2022-11-29T00:39:53.049Z,2.96
2022-11-29T00:42:54.377Z,2.95
2022-11-29T00:45:55.743Z,2.97
2022-11-29T00:48:57.076Z,2.95
2022-11-29T00:51:58.429Z,2.94
2022-11-29T00:54:59.753Z,2.93
2022-11-29T00:58:01.133Z,2.94
2022-11-29T01:01:02.960Z,2.95
2022-11-29T01:04:04.517Z,2.96
2022-11-29T01:07:05.878Z,2.96
2022-11-29T01:10:07.898Z,2.96
2022-11-29T01:13:10.096Z,2.96
2022-11-29T01:16:11.939Z,2.94
2022-11-29T01:19:13.250Z,2.96
2022-11-29T01:22:14.673Z,2.93
2022-11-29T01:25:16.298Z,2.92
2022-11-29T01:28:17.778Z,2.93
2022-11-29T01:31:39.350Z,2.92
2022-11-29T01:34:40.750Z,2.93
2022-11-29T01:37:42.170Z,2.94
2022-11-29T01:40:43.939Z,2.92
2022-11-29T01:44:12.832Z,2.91
2022-11-29T01:47:14.192Z,2.91
2022-11-29T01:50:15.683Z,2.90
2022-11-29T01:53:17.338Z,2.87
2022-11-29T01:56:18.777Z,2.85
2022-11-29T01:59:26.876Z,2.85
2022-11-29T02:02:32.474Z,2.87
2022-11-29T02:05:34.040Z,2.82
2022-11-29T02:08:41.211Z,2.80
2022-11-29T02:11:52.054Z,2.78
2022-11-29T02:15:28.947Z,2.74
2022-11-29T02:18:59.980Z,2.73
2022-11-29T02:22:29.549Z,2.74
2022-11-29T02:25:39.576Z,2.75
2022-11-29T02:28:49.797Z,2.73
2022-11-29T02:32:15.462Z,2.73
2022-11-29T02:35:25.921Z,2.72
2022-11-29T02:38:47.412Z,2.71
2022-11-29T02:42:16.626Z,2.72
2022-11-29T02:45:43.090Z,2.68
2022-11-29T02:49:18.882Z,2.66
2022-11-29T02:52:38.850Z,2.65
2022-11-29T02:56:10.782Z,2.66
2022-11-29T02:59:34.302Z,2.64
2022-11-29T03:03:03.614Z,2.62
2022-11-29T03:06:30.498Z,2.61
2022-11-29T03:09:55.107Z,2.60
2022-11-29T03:12:57.816Z,2.59
2022-11-29T03:16:29.039Z,2.58
2022-11-29T03:19:45.812Z,2.56
2022-11-29T03:23:02.076Z,2.58
2022-11-29T03:26:11.077Z,2.59
2022-11-29T03:29:26.865Z,2.55
2022-11-29T03:32:49.238Z,2.57
2022-11-29T03:36:14.342Z,2.57
2022-11-29T03:39:27.560Z,2.58
2022-11-29T03:43:00.211Z,2.55
2022-11-29T03:46:29.150Z,2.55
2022-11-29T03:49:46.241Z,2.54
2022-11-29T03:52:52.052Z,2.53
2022-11-29T03:56:02.073Z,2.52
2022-11-29T03:59:22.101Z,2.51
2022-11-29T04:03:08.436Z,2.48
2022-11-29T04:06:23.017Z,2.52
2022-11-29T04:09:36.280Z,2.53
2022-11-29T04:13:02.949Z,2.51
2022-11-29T04:16:22.887Z,2.53
2022-11-29T04:19:42.090Z,2.53
2022-11-29T04:23:09.630Z,2.55
2022-11-29T04:26:42.749Z,2.55
2022-11-29T04:29:50.251Z,2.60
2022-11-29T04:33:16.720Z,2.59
2022-11-29T04:36:33.308Z,2.62
2022-11-29T04:40:09.042Z,2.54
2022-11-29T04:43:34.634Z,2.57
2022-11-29T04:46:50.926Z,2.54
2022-11-29T04:50:02.830Z,2.58
2022-11-29T04:53:29.994Z,2.56
2022-11-29T04:56:45.394Z,2.55
2022-11-29T04:59:52.412Z,2.54
2022-11-29T05:03:07.482Z,2.52
2022-11-29T05:06:29.155Z,2.56
2022-11-29T05:10:09.008Z,2.54
2022-11-29T05:13:39.875Z,2.51
2022-11-29T05:17:12.264Z,2.49
2022-11-29T05:20:35.119Z,2.52
2022-11-29T05:23:55.069Z,2.52
2022-11-29T05:27:21.387Z,2.54
2022-11-29T05:30:25.434Z,2.53
2022-11-29T05:33:44.829Z,2.53
2022-11-29T05:37:23.734Z,2.54
2022-11-29T05:40:45.200Z,2.56
2022-11-29T05:44:11.309Z,2.57
2022-11-29T05:47:21.772Z,2.59
2022-11-29T05:50:33.137Z,2.57
2022-11-29T05:53:50.732Z,2.59
2022-11-29T05:57:10.061Z,2.59
2022-11-29T06:00:13.209Z,2.56
2022-11-29T06:03:23.004Z,2.59
2022-11-29T06:06:35.084Z,2.60
2022-11-29T06:10:08.805Z,2.59
2022-11-29T06:13:34.657Z,2.54
2022-11-29T06:17:23.148Z,2.54
2022-11-29T06:20:39.742Z,2.53
2022-11-29T06:24:05.642Z,2.56
2022-11-29T06:27:16.090Z,2.57
2022-11-29T06:30:22.720Z,2.60
2022-11-29T06:33:30.946Z,2.59
2022-11-29T06:36:42.138Z,2.57
2022-11-29T06:39:43.842Z,2.56
2022-11-29T06:42:45.171Z,2.54
2022-11-29T06:45:57.400Z,2.57
2022-11-29T06:49:17.367Z,2.58
2022-11-29T06:52:41.031Z,2.56
2022-11-29T06:55:52.707Z,2.56
2022-11-29T06:59:09.059Z,2.57
2022-11-29T07:02:45.761Z,2.53
2022-11-29T07:05:47.436Z,2.52
2022-11-29T07:08:56.776Z,2.57
2022-11-29T07:11:58.424Z,2.53
2022-11-29T07:15:00.065Z,2.52
2022-11-29T07:18:21.356Z,2.51
2022-11-29T07:21:33.286Z,2.50
2022-11-29T07:24:50.861Z,2.50
2022-11-29T07:28:50.993Z,2.47
2022-11-29T07:31:58.109Z,2.50
2022-11-29T07:35:50.201Z,2.45
2022-11-29T07:39:22.541Z,2.46
2022-11-29T07:42:39.230Z,2.48
2022-11-29T07:45:40.706Z,2.45
2022-11-29T07:48:42.111Z,2.43
2022-11-29T07:51:43.493Z,2.41
2022-11-29T07:54:45.101Z,2.41
2022-11-29T07:57:48.110Z,2.38
2022-11-29T08:00:49.582Z,2.37
2022-11-29T08:03:50.982Z,2.42
2022-11-29T08:06:52.312Z,2.42
2022-11-29T08:09:53.742Z,2.46
2022-11-29T08:12:55.106Z,2.46
2022-11-29T08:15:56.522Z,2.46
2022-11-29T08:18:58.019Z,2.45
2022-11-29T08:21:59.467Z,2.45
2022-11-29T08:25:00.849Z,2.47
2022-11-29T08:28:03.480Z,2.50
2022-11-29T08:31:07.368Z,2.53
2022-11-29T08:34:09.107Z,2.55
2022-11-29T08:37:10.597Z,2.59
2022-11-29T08:40:12.916Z,2.57
2022-11-29T08:43:14.292Z,2.58
2022-11-29T08:46:18.779Z,2.60
2022-11-29T08:49:20.549Z,2.62
2022-11-29T08:52:21.938Z,2.58
2022-11-29T08:55:25.741Z,2.58
2022-11-29T08:58:27.123Z,2.62
2022-11-29T09:01:28.491Z,2.64
2022-11-29T09:04:29.881Z,2.65
2022-11-29T09:07:31.362Z,2.66
2022-11-29T09:10:32.735Z,2.68
2022-11-29T09:13:34.110Z,2.74
2022-11-29T09:16:37.668Z,2.72
2022-11-29T09:19:39.042Z,2.74
2022-11-29T09:22:43.132Z,2.79
2022-11-29T09:25:48.607Z,2.82
2022-11-29T09:28:50.052Z,2.84
2022-11-29T09:31:51.475Z,2.88
2022-11-29T09:34:52.853Z,2.87
2022-11-29T09:37:54.240Z,2.88
2022-11-29T09:40:59.664Z,2.86
2022-11-29T09:44:12.244Z,2.87
2022-11-29T09:47:51.345Z,2.88
2022-11-29T09:51:17.840Z,2.90
2022-11-29T09:54:27.965Z,2.88
2022-11-29T09:57:31.213Z,2.90
2022-11-29T10:00:37.939Z,2.96
2022-11-29T10:03:48.676Z,2.99
2022-11-29T10:07:06.492Z,3.03
2022-11-29T10:10:13.309Z,3.07
2022-11-29T10:13:44.957Z,3.01
2022-11-29T10:16:52.321Z,2.96
2022-11-29T10:20:10.649Z,2.98
2022-11-29T10:23:33.653Z,3.01
2022-11-29T10:26:35.600Z,3.04
2022-11-29T10:29:38.230Z,3.12
2022-11-29T10:32:39.973Z,3.11
2022-11-29T10:35:41.370Z,3.11
2022-11-29T10:38:45.707Z,3.10
2022-11-29T10:41:51.732Z,3.12
2022-11-29T10:44:53.094Z,3.13
2022-11-29T10:48:02.614Z,3.12
2022-11-29T10:51:15.961Z,3.11
2022-11-29T10:54:47.860Z,3.05
2022-11-29T10:58:14.010Z,3.11
2022-11-29T11:01:16.577Z,3.18
2022-11-29T11:04:44.575Z,3.14
2022-11-29T11:07:56.902Z,3.16
2022-11-29T11:11:01.793Z,3.17
2022-11-29T11:14:22.849Z,3.14
2022-11-29T11:17:26.708Z,3.21
2022-11-29T11:20:36.294Z,3.30
2022-11-29T11:24:01.380Z,3.31
2022-11-29T11:27:02.892Z,3.30
2022-11-29T11:30:06.811Z,3.32
2022-11-29T11:33:28.252Z,3.31
2022-11-29T11:36:29.602Z,3.32
2022-11-29T11:39:31.276Z,3.40
2022-11-29T11:42:38.748Z,3.43
2022-11-29T11:45:40.108Z,3.42
2022-11-29T11:48:41.582Z,3.43
2022-11-29T11:51:43.790Z,3.44
2022-11-29T11:54:49.170Z,3.46
2022-11-29T11:58:10.297Z,3.51
2022-11-29T12:01:12.207Z,3.53
2022-11-29T12:04:30.550Z,3.50
2022-11-29T12:11:15.026Z,3.52
2022-11-29T12:14:42.631Z,3.46
2022-11-29T12:17:48.131Z,3.43
2022-11-29T12:20:58.322Z,3.46
2022-11-29T12:24:18.783Z,3.45
2022-11-29T12:27:20.186Z,3.53
2022-11-29T12:30:21.700Z,3.46
2022-11-29T12:33:56.459Z,3.45
2022-11-29T12:37:10.824Z,3.46
2022-11-29T12:40:45.723Z,3.47
2022-11-29T12:43:50.084Z,3.50
2022-11-29T12:47:34.561Z,3.51
2022-11-29T12:50:40.204Z,3.58
2022-11-29T12:54:06.292Z,3.57
2022-11-29T12:57:32.317Z,3.55
2022-11-29T13:00:44.861Z,3.54
2022-11-29T13:04:02.101Z,3.61
2022-11-29T13:07:41.287Z,3.59
2022-11-29T13:11:03.442Z,3.63
2022-11-29T13:14:40.945Z,3.65
2022-11-29T13:17:47.255Z,3.62
2022-11-29T13:21:06.845Z,3.59
2022-11-29T13:24:20.806Z,3.60
2022-11-29T13:27:28.367Z,3.65
2022-11-29T13:30:29.976Z,3.59
2022-11-29T13:33:42.327Z,3.59
2022-11-29T13:37:12.579Z,3.54
2022-11-29T13:40:25.848Z,3.58
2022-11-29T13:44:02.271Z,3.57
2022-11-29T13:47:13.539Z,3.62
2022-11-29T13:50:36.695Z,3.58
2022-11-29T13:53:48.506Z,3.57
2022-11-29T13:57:02.083Z,3.56
2022-11-29T14:00:04.383Z,3.58
2022-11-29T14:03:24.066Z,3.59
2022-11-29T14:06:34.750Z,3.61
2022-11-29T14:09:47.444Z,3.53
2022-11-29T14:12:56.571Z,3.53
2022-11-29T14:16:03.128Z,3.54
2022-11-29T14:19:06.671Z,3.51
2022-11-29T14:22:20.309Z,3.50
2022-11-29T14:25:49.646Z,3.36
2022-11-29T14:28:44.403Z,3.46
2022-11-29T14:31:50.934Z,3.51
2022-11-29T14:35:03.716Z,3.49
2022-11-29T14:38:18.716Z,3.46
2022-11-29T14:41:26.098Z,3.45
2022-11-29T14:44:30.800Z,3.49
2022-11-29T14:47:37.508Z,3.47
2022-11-29T14:50:40.393Z,3.44
2022-11-29T14:53:43.406Z,3.44
2022-11-29T14:56:46.702Z,3.43
2022-11-29T14:59:49.934Z,3.32
2022-11-29T15:03:00.331Z,3.37
2022-11-29T15:06:10.764Z,3.39
2022-11-29T15:09:19.923Z,3.39
2022-11-29T15:12:25.613Z,3.38
2022-11-29T15:15:37.194Z,3.40
2022-11-29T15:18:59.937Z,3.39
2022-11-29T15:22:12.313Z,3.38
2022-11-29T15:25:19.178Z,3.42
2022-11-29T15:28:26.688Z,3.41
2022-11-29T15:31:28.176Z,3.40
2022-11-29T15:34:33.489Z,3.41
2022-11-29T15:37:34.794Z,3.41
2022-11-29T15:40:36.137Z,3.40
2022-11-29T15:43:38.227Z,3.41
2022-11-29T15:46:39.559Z,3.42
2022-11-29T15:49:40.951Z,3.44
2022-11-29T15:52:42.494Z,3.50
2022-11-29T15:55:45.155Z,3.47
2022-11-29T15:58:47.927Z,3.44
2022-11-29T16:01:53.016Z,3.44
2022-11-29T16:05:01.055Z,3.45
2022-11-29T16:08:17.116Z,3.43
2022-11-29T16:11:22.926Z,3.44
2022-11-29T16:14:27.152Z,3.43
2022-11-29T16:17:34.148Z,3.44
2022-11-29T16:20:35.561Z,3.42
2022-11-29T16:23:39.274Z,3.43
2022-11-29T16:26:45.118Z,3.42
2022-11-29T16:29:47.877Z,3.41
2022-11-29T16:32:54.317Z,3.43
2022-11-29T16:36:15.909Z,3.42
2022-11-29T16:39:23.688Z,3.39
2022-11-29T16:42:27.814Z,3.39
2022-11-29T16:45:42.496Z,3.39
2022-11-29T16:48:43.929Z,3.38
2022-11-29T16:51:46.766Z,3.39
2022-11-29T16:54:48.595Z,3.39
2022-11-29T16:57:50.124Z,3.39
2022-11-29T17:00:51.518Z,3.40
2022-11-29T17:03:53.722Z,3.41
2022-11-29T17:06:56.197Z,3.41
2022-11-29T17:09:58.158Z,3.40
2022-11-29T17:12:59.535Z,3.45
2022-11-29T17:16:00.872Z,3.45
2022-11-29T17:19:02.195Z,3.45
2022-11-29T17:22:03.564Z,3.44
2022-11-29T17:25:05.372Z,3.43
2022-11-29T17:28:06.719Z,3.44
2022-11-29T17:31:15.603Z,3.47
2022-11-29T17:34:17.027Z,3.44
2022-11-29T17:37:18.429Z,3.42
2022-11-29T17:40:19.762Z,3.46
2022-11-29T17:43:21.104Z,3.45
2022-11-29T17:46:28.422Z,3.44
2022-11-29T17:49:29.791Z,3.43
2022-11-29T17:52:31.116Z,3.44
2022-11-29T17:55:32.458Z,3.45
2022-11-29T17:58:34.410Z,3.44
2022-11-29T18:01:36.384Z,3.43
2022-11-29T18:04:37.777Z,3.42
2022-11-29T18:07:39.153Z,3.44
2022-11-29T18:10:40.503Z,3.44
2022-11-29T18:13:42.178Z,3.41
2022-11-29T18:16:43.638Z,3.41
2022-11-29T18:19:45.155Z,3.43
2022-11-29T18:22:46.633Z,3.43
2022-11-29T18:25:59.289Z,3.41
2022-11-29T18:29:00.994Z,3.40
2022-11-29T18:32:02.355Z,3.41
2022-11-29T18:35:04.107Z,3.39
2022-11-29T18:38:20.685Z,3.41
2022-11-29T18:41:23.399Z,3.40
2022-11-29T18:44:24.816Z,3.40
2022-11-29T18:47:26.155Z,3.38
2022-11-29T18:50:27.491Z,3.39
2022-11-29T18:53:28.852Z,3.43
2022-11-29T18:56:32.864Z,3.41
2022-11-29T18:59:34.220Z,3.39
2022-11-29T19:02:35.635Z,3.40
2022-11-29T19:05:37.060Z,3.37
2022-11-29T19:08:38.719Z,3.37
2022-11-29T19:11:40.391Z,3.38
2022-11-29T19:14:46.525Z,3.37
2022-11-29T19:17:50.889Z,3.36
2022-11-29T19:20:52.286Z,3.35
2022-11-29T19:23:59.298Z,3.36
2022-11-29T19:27:00.661Z,3.35
2022-11-29T19:30:02.837Z,3.34
2022-11-29T19:33:04.300Z,3.33
2022-11-29T19:36:11.269Z,3.34
2022-11-29T19:39:14.961Z,3.33
2022-11-29T19:42:16.317Z,3.32
2022-11-29T19:45:18.373Z,3.32
2022-11-29T19:48:19.905Z,3.36
2022-11-29T19:51:22.316Z,3.36
2022-11-29T19:54:23.675Z,3.37
2022-11-29T19:57:25.037Z,3.40
2022-11-29T20:00:26.386Z,3.40
2022-11-29T20:03:29.626Z,3.40
2022-11-29T20:06:31.270Z,3.41
2022-11-29T20:09:33.031Z,3.43
2022-11-29T20:12:34.452Z,3.43
2022-11-29T20:15:35.825Z,3.44
2022-11-29T20:18:40.188Z,3.44
2022-11-29T20:21:44.244Z,3.46
2022-11-29T20:24:45.885Z,3.47
2022-11-29T20:27:47.250Z,3.50
2022-11-29T20:30:48.627Z,3.51
2022-11-29T20:33:52.601Z,3.50
2022-11-29T20:37:12.359Z,3.51
2022-11-29T20:40:26.077Z,3.52
2022-11-29T20:43:50.199Z,3.53
2022-11-29T20:46:51.724Z,3.53
2022-11-29T20:49:53.773Z,3.54
2022-11-29T20:53:24.605Z,3.56
2022-11-29T20:56:26.005Z,3.54
2022-11-29T20:59:29.376Z,3.43
2022-11-29T21:02:30.712Z,3.50
2022-11-29T21:05:32.153Z,3.51
2022-11-29T21:08:34.097Z,3.53
2022-11-29T21:11:35.829Z,3.53
2022-11-29T21:14:37.442Z,3.55
2022-11-29T21:17:39.525Z,3.53
2022-11-29T21:20:42.067Z,3.55
2022-11-29T21:23:49.546Z,3.54
2022-11-29T21:26:51.961Z,3.56
2022-11-29T21:29:53.821Z,3.54
2022-11-29T21:32:55.467Z,3.56
2022-11-29T21:35:57.736Z,3.55
2022-11-29T21:39:03.629Z,3.56
2022-11-29T21:42:06.531Z,3.58
2022-11-29T21:45:14.872Z,3.56
2022-11-29T21:48:17.078Z,3.56
2022-11-29T21:51:19.171Z,3.56
2022-11-29T21:54:20.546Z,3.54
2022-11-29T21:57:21.892Z,3.56
2022-11-29T22:00:23.512Z,3.58
2022-11-29T22:03:24.851Z,3.59
2022-11-29T22:06:26.336Z,3.62
2022-11-29T22:09:27.723Z,3.63
2022-11-29T22:12:36.223Z,3.65
2022-11-29T22:15:37.579Z,3.62
2022-11-29T22:18:38.921Z,3.62
2022-11-29T22:21:41.581Z,3.61
2022-11-29T22:24:42.923Z,3.62
2022-11-29T22:27:44.252Z,3.61
2022-11-29T22:30:45.585Z,3.62
2022-11-29T22:33:46.933Z,3.63
2022-11-29T22:36:48.421Z,3.63
2022-11-29T22:39:49.737Z,3.63
2022-11-29T22:42:51.923Z,3.64
2022-11-29T22:45:53.253Z,3.64
2022-11-29T22:48:56.340Z,3.62
2022-11-29T22:51:57.689Z,3.60
2022-11-29T22:55:04.482Z,3.58
2022-11-29T22:58:06.465Z,3.56
2022-11-29T23:01:13.353Z,3.57
2022-11-29T23:04:14.754Z,3.57
2022-11-29T23:07:16.084Z,3.56
2022-11-29T23:10:17.432Z,3.58
2022-11-29T23:13:18.759Z,3.56
2022-11-29T23:16:22.684Z,3.55
2022-11-29T23:19:24.051Z,3.54
2022-11-29T23:22:25.406Z,3.52
2022-11-29T23:25:26.731Z,3.53
2022-11-29T23:28:28.805Z,3.54
2022-11-29T23:31:30.174Z,3.53
2022-11-29T23:34:31.531Z,3.53
2022-11-29T23:37:32.859Z,3.52
2022-11-29T23:40:34.502Z,3.50
2022-11-29T23:43:37.840Z,3.54
2022-11-29T23:46:39.116Z,3.41
2022-11-29T23:49:40.464Z,3.46
2022-11-29T23:52:41.797Z,3.48
2022-11-29T23:55:43.222Z,3.46
2022-11-29T23:58:45.108Z,3.48
